KDLH/DLH METAR and TAF weather

Enter ICAO airport designator
Station Type Date Time Source
KDLH METAR 2019/02/23 01:55 UTC NOAA

KDLH 230155Z 21003KT 10SM OVC090 M04/M09 A3028 RMK AO2 SLP286 T10441089


Station Type Date Time Source
KDLH Decoded METAR 2019/02/23 01:55 UTC NOAA

Duluth, Duluth International Airport, MN, United States (KDLH) 46-50-34N 092-13-34W 435M
Feb 22, 2019 - 08:55 PM EST / 2019.02.23 0155 UTC
Wind: from the SSW (210 degrees) at 3 MPH (3 KT):0
Visibility: 10 mile(s):0
Sky conditions: overcast
Temperature: 24.1 F (-4.4 C)
Dew Point: 16.0 F (-8.9 C)
Relative Humidity: 70%
Pressure (altimeter): 30.28 in. Hg (1025 hPa)
ob: KDLH 230155Z 21003KT 10SM OVC090 M04/M09 A3028 RMK AO2 SLP286 T10441089
cycle: 2

Station Type Date Time Source
KDLH TAF 2019/02/23 01:04 UTC NOAA

TAF
AMD KDLH 230102Z 2301/2324 23005KT P6SM VCSH OVC070
FM230500 VRB03KT 5SM -SN OVC045
FM230800 10005KT 1 1/2SM -SN OVC010
FM231900 10007KT 2SM -FZDZ OVC003
FM232000 09007KT P6SM VCSH OVC008


Example: see airport list